createdAt,value
2022-11-19T00:01:06.165Z,97971.78
2022-11-19T00:03:37.609Z,97979.41
2022-11-19T00:06:07.838Z,97977.72
2022-11-19T00:08:35.352Z,97988.87
2022-11-19T00:11:12.566Z,97979.50
2022-11-19T00:13:40.284Z,97985.47
2022-11-19T00:16:08.361Z,97992.34
2022-11-19T00:18:35.470Z,97994.19
2022-11-19T00:21:12.747Z,98005.38
2022-11-19T00:23:40.126Z,98005.38
2022-11-19T00:26:14.438Z,98016.38
2022-11-19T00:28:41.926Z,98017.81
2022-11-19T00:31:10.735Z,98021.72
2022-11-19T00:33:38.267Z,98020.09
2022-11-19T00:36:06.077Z,98023.81
2022-11-19T00:38:33.643Z,98012.66
2022-11-19T00:41:00.781Z,98016.91
2022-11-19T00:43:46.491Z,98017.66
2022-11-19T00:46:17.763Z,98020.37
2022-11-19T00:48:45.203Z,98021.59
2022-11-19T00:51:12.834Z,98027.31
2022-11-19T00:53:40.282Z,98027.91
2022-11-19T00:56:08.477Z,98033.41
2022-11-19T00:58:35.770Z,98041.59
2022-11-19T01:01:03.223Z,98055.56
2022-11-19T01:03:30.951Z,98065.03
2022-11-19T01:05:58.075Z,98063.41
2022-11-19T01:08:25.570Z,98079.41
2022-11-19T01:10:52.688Z,98090.72
2022-11-19T01:13:35.026Z,98091.59
2022-11-19T01:16:03.377Z,98082.06
2022-11-19T01:18:30.478Z,98098.44
2022-11-19T01:20:57.593Z,98101.06
2022-11-19T01:23:24.965Z,98112.47
2022-11-19T01:25:52.328Z,98119.88
2022-11-19T01:28:19.453Z,98116.59
2022-11-19T01:30:46.830Z,98129.94
2022-11-19T01:33:13.965Z,98127.06
2022-11-19T01:36:00.153Z,98125.94
2022-11-19T01:38:27.844Z,98117.31
2022-11-19T01:40:55.621Z,98115.53
2022-11-19T01:43:41.210Z,98110.09
2022-11-19T01:46:09.043Z,98127.38
2022-11-19T01:48:36.911Z,98121.31
2022-11-19T01:51:05.196Z,98130.03
2022-11-19T01:53:33.062Z,98130.88
2022-11-19T01:56:03.971Z,98138.03
2022-11-19T01:58:31.986Z,98136.19
2022-11-19T02:00:59.380Z,98143.97
2022-11-19T02:03:30.589Z,98145.91
2022-11-19T02:05:58.131Z,98162.19
2022-11-19T02:08:35.804Z,98168.81
2022-11-19T02:11:21.668Z,98182.16
2022-11-19T02:13:58.893Z,98181.50
2022-11-19T02:16:39.946Z,98181.44
2022-11-19T02:19:27.266Z,98188.88
2022-11-19T02:21:57.645Z,98176.50
2022-11-19T02:24:42.854Z,98176.09
2022-11-19T02:27:19.127Z,98171.69
2022-11-19T02:29:48.934Z,98178.72
2022-11-19T02:32:16.774Z,98188.22
2022-11-19T02:34:46.372Z,98202.03
2022-11-19T02:37:17.211Z,98213.22
2022-11-19T02:39:48.793Z,98219.28
2022-11-19T02:42:22.771Z,98226.16
2022-11-19T02:45:00.295Z,98233.13
2022-11-19T02:47:30.433Z,98243.44
2022-11-19T02:49:59.574Z,98245.19
2022-11-19T02:52:26.800Z,98244.88
2022-11-19T02:54:53.925Z,98250.19
2022-11-19T02:57:21.281Z,98236.31
2022-11-19T03:00:17.477Z,98236.47
2022-11-19T03:03:30.085Z,98239.09
2022-11-19T03:06:01.613Z,98252.03
2022-11-19T03:08:29.000Z,98265.06
2022-11-19T03:11:02.090Z,98259.88
2022-11-19T03:14:08.386Z,98257.19
2022-11-19T03:16:43.205Z,98264.75
2022-11-19T03:19:16.940Z,98275.28
2022-11-19T03:22:07.285Z,98274.34
2022-11-19T03:24:36.520Z,98282.22
2022-11-19T03:27:06.719Z,98278.00
2022-11-19T03:29:35.197Z,98287.47
2022-11-19T03:32:04.631Z,98301.13
2022-11-19T03:34:31.753Z,98298.56
2022-11-19T03:36:59.625Z,98296.97
2022-11-19T03:39:26.970Z,98303.88
2022-11-19T03:41:54.181Z,98297.03
2022-11-19T03:44:25.948Z,98316.03
2022-11-19T03:46:54.815Z,98311.69
2022-11-19T03:49:22.694Z,98311.72
2022-11-19T03:52:03.661Z,98307.38
2022-11-19T03:54:31.026Z,98314.22
2022-11-19T03:56:58.192Z,98315.09
2022-11-19T03:59:29.578Z,98319.38
2022-11-19T04:01:58.628Z,98327.25
2022-11-19T04:04:38.247Z,98330.63
2022-11-19T04:07:05.361Z,98326.38
2022-11-19T04:09:32.777Z,98322.78
2022-11-19T04:12:00.027Z,98338.28
2022-11-19T04:14:27.189Z,98347.81
2022-11-19T04:16:54.554Z,98349.53
2022-11-19T04:19:22.186Z,98352.09
2022-11-19T04:21:49.610Z,98355.56
2022-11-19T04:24:17.133Z,98358.19
2022-11-19T04:26:44.268Z,98363.31
2022-11-19T04:29:11.406Z,98383.19
2022-11-19T04:31:38.800Z,98382.47
2022-11-19T04:34:06.019Z,98388.47
2022-11-19T04:36:33.117Z,98382.41
2022-11-19T04:39:00.602Z,98390.16
2022-11-19T04:41:27.700Z,98395.22
2022-11-19T04:43:58.596Z,98403.13
2022-11-19T04:46:29.229Z,98417.03
2022-11-19T04:48:56.490Z,98421.34
2022-11-19T04:51:23.713Z,98425.66
2022-11-19T04:53:51.072Z,98436.84
2022-11-19T04:56:18.226Z,98436.84
2022-11-19T04:58:45.334Z,98458.53
2022-11-19T05:01:12.775Z,98459.41
2022-11-19T05:03:41.232Z,98464.50
2022-11-19T05:06:09.848Z,98469.75
2022-11-19T05:08:37.257Z,98466.28
2022-11-19T05:11:04.455Z,98475.72
2022-11-19T05:13:31.570Z,98468.03
2022-11-19T05:15:58.930Z,98472.34
2022-11-19T05:18:26.069Z,98467.19
2022-11-19T05:20:53.169Z,98476.75
2022-11-19T05:23:21.095Z,98481.06
2022-11-19T05:25:48.231Z,98486.25
2022-11-19T05:28:15.465Z,98491.41
2022-11-19T05:30:42.850Z,98487.09
2022-11-19T05:33:10.073Z,98482.78
2022-11-19T05:35:37.248Z,98476.72
2022-11-19T05:38:04.673Z,98482.78
2022-11-19T05:40:31.797Z,98500.09
2022-11-19T05:43:03.298Z,98500.94
2022-11-19T05:45:30.682Z,98506.94
2022-11-19T05:47:57.885Z,98513.88
2022-11-19T05:50:24.998Z,98508.66
2022-11-19T05:52:52.392Z,98526.00
2022-11-19T05:55:20.745Z,98520.81
2022-11-19T05:57:47.860Z,98522.53
2022-11-19T06:00:16.344Z,98528.63
2022-11-19T06:02:43.798Z,98535.53
2022-11-19T06:05:11.006Z,98545.91
2022-11-19T06:07:38.289Z,98549.38
2022-11-19T06:10:05.931Z,98557.16
2022-11-19T06:12:33.161Z,98553.66
2022-11-19T06:15:01.998Z,98552.78
2022-11-19T06:17:29.460Z,98568.72
2022-11-19T06:19:56.553Z,98579.16
2022-11-19T06:22:24.054Z,98580.19
2022-11-19T06:24:51.502Z,98586.41
2022-11-19T06:27:18.607Z,98567.22
2022-11-19T06:29:45.838Z,98578.56
2022-11-19T06:32:13.214Z,98579.41
2022-11-19T06:34:40.349Z,98574.28
2022-11-19T06:37:07.473Z,98587.25
2022-11-19T06:39:34.873Z,98594.94
2022-11-19T06:42:28.258Z,98591.50
2022-11-19T06:44:55.812Z,98599.41
2022-11-19T06:47:22.930Z,98597.56
2022-11-19T06:49:50.027Z,98605.94
2022-11-19T06:52:17.390Z,98600.97
2022-11-19T06:54:44.591Z,98605.72
2022-11-19T06:57:11.705Z,98606.78
2022-11-19T06:59:39.167Z,98601.03
2022-11-19T07:02:06.870Z,98597.44
2022-11-19T07:04:34.036Z,98603.72
2022-11-19T07:07:01.486Z,98604.31
2022-11-19T07:09:28.669Z,98612.19
2022-11-19T07:11:55.785Z,98609.94
2022-11-19T07:14:23.168Z,98628.31
2022-11-19T07:16:50.314Z,98637.81
2022-11-19T07:19:17.772Z,98635.84
2022-11-19T07:21:45.352Z,98636.50
2022-11-19T07:24:15.608Z,98634.06
2022-11-19T07:26:42.730Z,98634.50
2022-11-19T07:29:10.641Z,98641.56
2022-11-19T07:31:37.760Z,98650.22
2022-11-19T07:34:08.270Z,98632.91
2022-11-19T07:36:35.888Z,98639.19
2022-11-19T07:39:03.776Z,98645.44
2022-11-19T07:41:49.590Z,98642.97
2022-11-19T07:44:16.962Z,98637.31
2022-11-19T07:46:44.065Z,98640.00
2022-11-19T07:49:11.306Z,98632.59
2022-11-19T07:51:38.710Z,98634.66
2022-11-19T07:54:05.842Z,98628.72
2022-11-19T07:56:32.952Z,98639.00
2022-11-19T07:59:00.607Z,98640.56
2022-11-19T08:01:27.830Z,98643.31
2022-11-19T08:03:56.772Z,98634.88
2022-11-19T08:06:24.932Z,98638.22
2022-11-19T08:08:52.539Z,98636.72
2022-11-19T08:11:20.038Z,98638.97
2022-11-19T08:13:47.125Z,98634.16
2022-11-19T08:16:34.160Z,98634.63
2022-11-19T08:19:02.146Z,98638.09
2022-11-19T08:21:29.235Z,98646.97
2022-11-19T08:23:56.696Z,98654.47
2022-11-19T08:26:24.063Z,98667.00
2022-11-19T08:28:51.173Z,98667.87
2022-11-19T08:31:19.477Z,98669.94
2022-11-19T08:33:46.858Z,98666.97
2022-11-19T08:36:13.974Z,98679.22
2022-11-19T08:38:41.081Z,98687.75
2022-11-19T08:41:27.183Z,98685.34
2022-11-19T08:43:54.301Z,98688.38
2022-11-19T08:46:21.684Z,98701.16
2022-11-19T08:48:48.823Z,98698.88
2022-11-19T08:51:16.565Z,98707.63
2022-11-19T08:53:43.935Z,98694.97
2022-11-19T08:56:16.760Z,98682.78
2022-11-19T08:58:45.310Z,98680.59
2022-11-19T09:01:13.083Z,98722.38
2022-11-19T09:03:40.269Z,98748.81
2022-11-19T09:06:07.710Z,98760.88
2022-11-19T09:08:35.037Z,98761.13
2022-11-19T09:11:06.030Z,98769.84
2022-11-19T09:13:33.477Z,98772.31
2022-11-19T09:16:00.583Z,98778.59
2022-11-19T09:18:27.715Z,98774.59
2022-11-19T09:20:55.841Z,98776.75
2022-11-19T09:23:23.611Z,98761.94
2022-11-19T09:25:57.731Z,98767.56
2022-11-19T09:28:25.295Z,98761.91
2022-11-19T09:31:01.575Z,98767.63
2022-11-19T09:33:29.355Z,98770.25
2022-11-19T09:35:56.531Z,98761.94
2022-11-19T09:38:23.635Z,98754.59
2022-11-19T09:40:54.745Z,98761.81
2022-11-19T09:43:31.870Z,98781.75
2022-11-19T09:46:02.014Z,98773.91
2022-11-19T09:48:33.210Z,98790.88
2022-11-19T09:51:02.252Z,98795.97
2022-11-19T09:53:32.040Z,98791.81
2022-11-19T09:55:59.306Z,98792.88
2022-11-19T09:58:28.360Z,98793.03
2022-11-19T10:00:55.495Z,98789.00
2022-11-19T10:03:25.364Z,98799.75
2022-11-19T10:06:12.323Z,98781.53
2022-11-19T10:08:58.376Z,98784.91
2022-11-19T10:11:31.221Z,98786.59
2022-11-19T10:14:15.189Z,98778.59
2022-11-19T10:16:42.196Z,98777.03
2022-11-19T10:19:09.575Z,98771.91
2022-11-19T10:21:55.503Z,98773.91
2022-11-19T10:24:39.237Z,98759.69
2022-11-19T10:27:12.388Z,98760.28
2022-11-19T10:29:40.428Z,98760.66
2022-11-19T10:32:16.821Z,98761.09
2022-11-19T10:34:44.258Z,98757.47
2022-11-19T10:37:11.709Z,98759.13
2022-11-19T10:39:40.051Z,98758.84
2022-11-19T10:42:10.501Z,98765.72
2022-11-19T10:44:41.482Z,98765.34
2022-11-19T10:47:29.141Z,98765.03
2022-11-19T10:49:56.344Z,98764.66
2022-11-19T10:52:23.692Z,98760.44
2022-11-19T10:54:51.069Z,98759.94
2022-11-19T10:57:18.678Z,98761.75
2022-11-19T10:59:46.727Z,98766.91
2022-11-19T11:02:27.616Z,98768.69
2022-11-19T11:04:59.494Z,98779.56
2022-11-19T11:07:47.102Z,98782.78
2022-11-19T11:10:23.335Z,98794.56
2022-11-19T11:13:09.472Z,98787.94
2022-11-19T11:15:39.955Z,98793.53
2022-11-19T11:18:08.103Z,98792.56
2022-11-19T11:20:36.275Z,98788.59
2022-11-19T11:23:09.259Z,98799.28
2022-11-19T11:25:36.420Z,98808.09
2022-11-19T11:28:17.385Z,98805.25
2022-11-19T11:30:55.309Z,98808.53
2022-11-19T11:33:22.589Z,98805.53
2022-11-19T11:35:49.697Z,98808.34
2022-11-19T11:38:17.752Z,98799.84
2022-11-19T11:44:01.483Z,98794.59
2022-11-19T11:46:35.988Z,98798.84
2022-11-19T11:49:08.391Z,98793.03
2022-11-19T11:51:42.094Z,98798.94
2022-11-19T11:54:18.424Z,98791.88
2022-11-19T11:56:46.220Z,98781.50
2022-11-19T11:59:33.542Z,98787.34
2022-11-19T12:02:05.525Z,98799.19
2022-11-19T12:04:33.567Z,98787.81
2022-11-19T12:07:03.499Z,98785.88
2022-11-19T12:09:33.591Z,98788.87
2022-11-19T12:12:09.176Z,98788.97
2022-11-19T12:14:36.193Z,98776.31
2022-11-19T12:17:09.695Z,98772.16
2022-11-19T12:19:37.142Z,98771.59
2022-11-19T12:22:09.909Z,98781.16
2022-11-19T12:24:41.244Z,98767.94
2022-11-19T12:27:27.363Z,98772.03
2022-11-19T12:30:02.290Z,98773.53
2022-11-19T12:32:35.657Z,98766.66
2022-11-19T12:35:04.798Z,98768.03
2022-11-19T12:37:41.662Z,98756.44
2022-11-19T12:40:30.061Z,98756.03
2022-11-19T12:43:01.494Z,98746.72
2022-11-19T12:45:36.856Z,98742.81
2022-11-19T12:48:22.913Z,98766.59
2022-11-19T12:51:05.134Z,98762.62
2022-11-19T12:53:32.462Z,98768.84
2022-11-19T12:55:59.520Z,98763.25
2022-11-19T12:58:45.444Z,98767.56
2022-11-19T13:01:13.779Z,98779.16
2022-11-19T13:03:50.208Z,98770.66
2022-11-19T13:06:22.851Z,98763.91
2022-11-19T13:08:51.663Z,98767.91
2022-11-19T13:11:36.542Z,98764.72
2022-11-19T13:14:09.648Z,98753.56
2022-11-19T13:16:37.038Z,98753.38
2022-11-19T13:19:13.291Z,98763.12
2022-11-19T13:21:43.712Z,98768.97
2022-11-19T13:24:38.108Z,98778.94
2022-11-19T13:27:06.548Z,98783.38
2022-11-19T13:29:33.862Z,98782.09
2022-11-19T13:32:19.367Z,98772.72
2022-11-19T13:34:59.715Z,98767.47
2022-11-19T13:37:44.321Z,98778.81
2022-11-19T13:40:17.916Z,98779.63
2022-11-19T13:43:30.506Z,98792.31
2022-11-19T13:45:53.500Z,98792.31
2022-11-19T13:48:25.021Z,98796.72
2022-11-19T13:50:52.459Z,98794.22
2022-11-19T13:53:26.346Z,98799.44
2022-11-19T13:55:57.267Z,98795.16
2022-11-19T13:58:24.401Z,98796.50
2022-11-19T14:01:02.917Z,98798.63
2022-11-19T14:03:35.868Z,98785.72
2022-11-19T14:06:02.899Z,98793.50
2022-11-19T14:08:51.633Z,98796.03
2022-11-19T14:11:37.742Z,98799.47
2022-11-19T14:14:07.630Z,98794.97
2022-11-19T14:17:01.830Z,98790.03
2022-11-19T14:19:47.828Z,98783.94
2022-11-19T14:23:09.293Z,98783.09
2022-11-19T14:26:05.034Z,98780.53
2022-11-19T14:28:51.325Z,98771.00
2022-11-19T14:31:19.530Z,98776.09
2022-11-19T14:33:46.909Z,98777.75
2022-11-19T14:36:21.122Z,98790.69
2022-11-19T14:38:50.101Z,98788.22
2022-11-19T14:41:18.641Z,98789.19
2022-11-19T14:44:07.940Z,98786.53
2022-11-19T14:46:47.954Z,98790.78
2022-11-19T14:49:22.053Z,98804.78
2022-11-19T14:51:54.164Z,98811.72
2022-11-19T14:54:30.063Z,98814.31
2022-11-19T14:57:00.034Z,98816.81
2022-11-19T14:59:27.520Z,98816.03
2022-11-19T15:01:54.620Z,98810.81
2022-11-19T15:04:22.833Z,98809.88
2022-11-19T15:06:50.321Z,98802.13
2022-11-19T15:09:36.403Z,98824.72
2022-11-19T15:12:03.797Z,98828.19
2022-11-19T15:15:01.051Z,98824.66
2022-11-19T15:17:28.522Z,98816.00
2022-11-19T15:20:07.816Z,98809.09
2022-11-19T15:22:38.288Z,98816.84
2022-11-19T15:25:05.415Z,98816.88
2022-11-19T15:27:32.480Z,98823.84
2022-11-19T15:30:29.085Z,98829.03
2022-11-19T15:32:59.114Z,98826.41
2022-11-19T15:35:26.438Z,98823.81
2022-11-19T15:37:54.733Z,98817.78
2022-11-19T15:40:28.190Z,98821.06
2022-11-19T15:43:01.548Z,98818.66
2022-11-19T15:45:29.953Z,98818.59
2022-11-19T15:47:59.682Z,98817.63
2022-11-19T15:50:27.846Z,98838.38
2022-11-19T15:53:01.953Z,98847.78
2022-11-19T15:55:30.953Z,98839.59
2022-11-19T15:58:02.582Z,98834.53
2022-11-19T16:00:29.977Z,98833.78
2022-11-19T16:02:57.372Z,98823.75
2022-11-19T16:05:24.653Z,98826.66
2022-11-19T16:07:51.841Z,98834.59
2022-11-19T16:10:28.183Z,98824.94
2022-11-19T16:13:15.041Z,98830.94
2022-11-19T16:16:10.593Z,98835.22
2022-11-19T16:18:47.641Z,98838.53
2022-11-19T16:21:17.493Z,98847.97
2022-11-19T16:24:04.624Z,98857.25
2022-11-19T16:26:35.735Z,98868.50
2022-11-19T16:29:02.859Z,98881.47
2022-11-19T16:31:30.790Z,98872.44
2022-11-19T16:33:58.920Z,98881.56
2022-11-19T16:36:30.100Z,98891.94
2022-11-19T16:38:57.532Z,98892.59
2022-11-19T16:41:43.544Z,98903.09
2022-11-19T16:44:17.137Z,98897.78
2022-11-19T16:46:45.070Z,98892.31
2022-11-19T16:49:29.050Z,98900.66
2022-11-19T16:51:58.082Z,98910.41
2022-11-19T16:54:45.841Z,98901.25
2022-11-19T16:57:13.879Z,98903.22
2022-11-19T16:59:41.608Z,98896.75
2022-11-19T17:02:12.699Z,98899.59
2022-11-19T17:04:41.334Z,98913.75
2022-11-19T17:07:11.866Z,98914.62
2022-11-19T17:09:42.608Z,98921.31
2022-11-19T17:12:21.959Z,98899.62
2022-11-19T17:14:51.286Z,98899.00
2022-11-19T17:17:29.281Z,98896.56
2022-11-19T17:19:58.202Z,98904.16
2022-11-19T17:22:31.195Z,98909.59
2022-11-19T17:25:00.035Z,98895.78
2022-11-19T17:27:28.767Z,98894.84
2022-11-19T17:30:16.669Z,98905.03
2022-11-19T17:32:48.180Z,98912.34
2022-11-19T17:35:34.398Z,98916.22
2022-11-19T17:38:13.840Z,98918.78
2022-11-19T17:40:48.396Z,98922.53
2022-11-19T17:43:35.061Z,98920.28
2022-11-19T17:46:02.221Z,98905.22
2022-11-19T17:48:29.781Z,98901.94
2022-11-19T17:50:57.995Z,98889.84
2022-11-19T17:53:25.556Z,98902.87
2022-11-19T17:55:54.069Z,98899.62
2022-11-19T17:58:21.515Z,98893.22
2022-11-19T18:00:48.780Z,98885.47
2022-11-19T18:03:16.425Z,98883.47
2022-11-19T18:05:45.954Z,98878.53
2022-11-19T18:08:13.704Z,98881.00
2022-11-19T18:10:45.464Z,98887.63
2022-11-19T18:13:13.227Z,98884.22
2022-11-19T18:15:40.778Z,98887.91
2022-11-19T18:18:08.074Z,98883.94
2022-11-19T18:20:35.191Z,98879.63
2022-11-19T18:23:02.817Z,98879.50
2022-11-19T18:25:30.291Z,98871.34
2022-11-19T18:27:57.803Z,98873.03
2022-11-19T18:30:25.745Z,98873.56
2022-11-19T18:32:53.095Z,98880.44
2022-11-19T18:35:20.583Z,98881.13
2022-11-19T18:37:48.688Z,98891.00
2022-11-19T18:40:16.047Z,98887.63
2022-11-19T18:43:03.612Z,98885.41
2022-11-19T18:45:31.463Z,98885.25
2022-11-19T18:47:59.029Z,98877.75
2022-11-19T18:50:29.831Z,98875.31
2022-11-19T18:52:58.026Z,98874.06
2022-11-19T18:55:25.352Z,98866.94
2022-11-19T18:57:52.903Z,98861.56
2022-11-19T19:00:20.794Z,98864.56
2022-11-19T19:02:48.260Z,98869.53
2022-11-19T19:05:15.426Z,98876.44
2022-11-19T19:07:43.021Z,98883.13
2022-11-19T19:10:11.094Z,98881.41
2022-11-19T19:12:39.163Z,98873.44
2022-11-19T19:15:07.434Z,98868.38
2022-11-19T19:17:34.985Z,98865.03
2022-11-19T19:20:02.715Z,98870.31
2022-11-19T19:22:30.935Z,98869.19
2022-11-19T19:24:58.699Z,98886.75
2022-11-19T19:27:26.403Z,98883.03
2022-11-19T19:29:54.977Z,98883.25
2022-11-19T19:32:22.668Z,98894.81
2022-11-19T19:34:50.949Z,98893.00
2022-11-19T19:37:18.831Z,98886.94
2022-11-19T19:39:46.703Z,98871.16
2022-11-19T19:42:14.254Z,98868.09
2022-11-19T19:44:42.265Z,98872.03
2022-11-19T19:47:10.148Z,98869.38
2022-11-19T19:49:39.031Z,98869.22
2022-11-19T19:52:07.283Z,98874.06
2022-11-19T19:54:35.088Z,98888.63
2022-11-19T19:57:02.650Z,98876.03
2022-11-19T19:59:30.343Z,98889.38
2022-11-19T20:01:57.860Z,98893.66
2022-11-19T20:04:25.846Z,98899.66
2022-11-19T20:06:54.556Z,98905.84
2022-11-19T20:09:22.277Z,98898.34
2022-11-19T20:11:50.225Z,98904.13
2022-11-19T20:14:17.792Z,98921.91
2022-11-19T20:16:45.390Z,98921.88
2022-11-19T20:19:14.402Z,98913.91
2022-11-19T20:21:42.238Z,98926.66
2022-11-19T20:24:13.719Z,98937.81
2022-11-19T20:26:42.698Z,98943.44
2022-11-19T20:29:13.221Z,98930.44
2022-11-19T20:31:41.158Z,98916.34
2022-11-19T20:34:09.862Z,98923.09
2022-11-19T20:36:37.521Z,98918.13
2022-11-19T20:39:05.256Z,98916.28
2022-11-19T20:41:52.019Z,98924.94
2022-11-19T20:44:25.822Z,98909.41
2022-11-19T20:46:56.088Z,98925.09
2022-11-19T20:49:25.259Z,98911.50
2022-11-19T20:51:53.077Z,98913.84
2022-11-19T20:54:20.661Z,98905.44
2022-11-19T20:56:49.288Z,98910.69
2022-11-19T20:59:17.221Z,98915.72
2022-11-19T21:01:44.903Z,98929.44
2022-11-19T21:04:12.894Z,98921.94
2022-11-19T21:06:43.715Z,98920.78
2022-11-19T21:09:11.091Z,98922.81
2022-11-19T21:11:39.308Z,98914.19
2022-11-19T21:14:06.927Z,98910.78
2022-11-19T21:16:34.439Z,98906.00
2022-11-19T21:19:02.068Z,98899.28
2022-11-19T21:21:29.876Z,98882.06
2022-11-19T21:23:57.587Z,98883.97
2022-11-19T21:26:25.722Z,98869.34
2022-11-19T21:28:54.190Z,98890.06
2022-11-19T21:31:22.208Z,98884.66
2022-11-19T21:33:52.077Z,98879.87
2022-11-19T21:36:19.736Z,98882.75
2022-11-19T21:38:47.215Z,98875.19
2022-11-19T21:41:14.804Z,98880.03
2022-11-19T21:43:42.292Z,98873.75
2022-11-19T21:46:09.403Z,98890.09
2022-11-19T21:48:37.253Z,98868.38
2022-11-19T21:51:07.861Z,98856.47
2022-11-19T21:53:35.463Z,98849.19
2022-11-19T21:56:02.723Z,98852.81
2022-11-19T21:58:30.297Z,98848.56
2022-11-19T22:00:58.462Z,98844.25
2022-11-19T22:03:26.348Z,98851.31
2022-11-19T22:06:01.817Z,98830.47
2022-11-19T22:08:30.206Z,98817.81
2022-11-19T22:10:57.376Z,98821.41
2022-11-19T22:13:28.643Z,98810.59
2022-11-19T22:16:00.148Z,98800.34
2022-11-19T22:18:27.262Z,98799.94
2022-11-19T22:21:02.354Z,98803.87
2022-11-19T22:23:29.760Z,98805.72
2022-11-19T22:25:56.882Z,98817.91
2022-11-19T22:28:23.985Z,98821.25
2022-11-19T22:30:52.033Z,98828.72
2022-11-19T22:33:19.138Z,98824.91
2022-11-19T22:35:46.552Z,98797.78
2022-11-19T22:38:14.285Z,98781.03
2022-11-19T22:40:41.403Z,98781.53
2022-11-19T22:43:08.496Z,98783.34
2022-11-19T22:45:35.928Z,98772.63
2022-11-19T22:48:03.162Z,98769.72
2022-11-19T22:50:30.256Z,98772.69
2022-11-19T22:52:57.631Z,98765.25
2022-11-19T22:55:24.724Z,98775.84
2022-11-19T22:57:51.818Z,98783.09
2022-11-19T23:00:36.349Z,98779.31
2022-11-19T23:03:03.605Z,98786.75
2022-11-19T23:05:36.839Z,98792.16
2022-11-19T23:08:04.946Z,98803.56
2022-11-19T23:10:33.566Z,98796.91
2022-11-19T23:13:20.134Z,98807.56
2022-11-19T23:16:02.578Z,98816.66
2022-11-19T23:18:30.103Z,98809.28
2022-11-19T23:21:01.309Z,98806.09
2022-11-19T23:23:28.410Z,98791.16
2022-11-19T23:25:59.582Z,98770.91
2022-11-19T23:28:27.579Z,98754.50
2022-11-19T23:30:54.695Z,98755.41
2022-11-19T23:33:22.205Z,98753.72
2022-11-19T23:35:49.567Z,98758.72
2022-11-19T23:38:16.679Z,98758.09
2022-11-19T23:40:43.789Z,98760.78
2022-11-19T23:43:11.178Z,98762.38
2022-11-19T23:45:38.300Z,98760.88
2022-11-19T23:48:05.628Z,98762.78
2022-11-19T23:50:33.059Z,98756.34
2022-11-19T23:53:00.169Z,98759.66
2022-11-19T23:55:27.315Z,98754.00
2022-11-19T23:57:54.680Z,98739.78
